createdAt,value
2017-09-21T00:00:53.682Z,4.97
2017-09-21T00:01:57.672Z,6.62
2017-09-21T00:03:00.912Z,5.47
2017-09-21T00:04:04.168Z,9.15
2017-09-21T00:05:06.638Z,5.50
2017-09-21T00:06:09.098Z,5.45
2017-09-21T00:07:12.334Z,7.10
2017-09-21T00:08:15.595Z,7.68
2017-09-21T00:09:18.151Z,6.75
2017-09-21T00:10:20.651Z,9.27
2017-09-21T00:11:23.135Z,5.15
2017-09-21T00:12:26.397Z,7.22
2017-09-21T00:13:28.863Z,7.45
2017-09-21T00:14:31.329Z,8.38
2017-09-21T00:15:33.792Z,7.32
2017-09-21T00:16:36.312Z,5.55
2017-09-21T00:17:39.550Z,5.62
2017-09-21T00:18:42.778Z,6.53
2017-09-21T00:19:46.082Z,7.78
2017-09-21T00:20:48.577Z,8.65
2017-09-21T00:21:51.123Z,6.07
2017-09-21T00:22:53.621Z,4.70
2017-09-21T00:23:56.077Z,8.32
2017-09-21T00:24:58.542Z,6.03
2017-09-21T00:26:01.790Z,5.75
2017-09-21T00:27:05.062Z,7.35
2017-09-21T00:28:07.526Z,7.00
2017-09-21T00:29:09.991Z,7.55
2017-09-21T00:30:13.218Z,6.87
2017-09-21T00:31:15.675Z,5.43
2017-09-21T00:32:18.179Z,4.75
2017-09-21T00:33:21.370Z,6.50
2017-09-21T00:34:23.866Z,10.05
2017-09-21T00:35:26.368Z,8.25
2017-09-21T00:36:29.607Z,11.27
2017-09-21T00:37:32.993Z,5.28
2017-09-21T00:38:35.502Z,5.10
2017-09-21T00:39:37.954Z,11.05
2017-09-21T00:40:40.427Z,8.55
2017-09-21T00:41:42.966Z,6.40
2017-09-21T00:42:46.837Z,7.53
2017-09-21T00:43:49.312Z,4.93
2017-09-21T00:44:51.895Z,4.30
2017-09-21T00:45:54.377Z,14.05
2017-09-21T00:46:57.159Z,6.20
2017-09-21T00:47:59.654Z,5.03
2017-09-21T00:49:02.936Z,8.68
2017-09-21T00:50:05.413Z,6.18
2017-09-21T00:51:08.640Z,7.35
2017-09-21T00:52:11.148Z,7.93
2017-09-21T00:53:13.628Z,8.05
2017-09-21T00:54:16.131Z,5.97
2017-09-21T00:55:18.602Z,5.25
2017-09-21T00:56:21.064Z,10.60
2017-09-21T00:57:23.518Z,6.45
2017-09-21T00:58:26.730Z,7.85
2017-09-21T00:59:29.343Z,8.00
2017-09-21T01:00:32.041Z,6.72
2017-09-21T01:01:34.514Z,12.52
2017-09-21T01:02:37.845Z,6.32
2017-09-21T01:03:40.336Z,8.65
2017-09-21T01:04:42.891Z,17.02
2017-09-21T01:05:45.421Z,6.78
2017-09-21T01:06:47.934Z,8.63
2017-09-21T01:07:50.425Z,8.57
2017-09-21T01:08:52.892Z,7.07
2017-09-21T01:09:55.403Z,8.10
2017-09-21T01:10:57.889Z,9.15
2017-09-21T01:12:01.125Z,10.20
2017-09-21T01:13:04.434Z,7.65
2017-09-21T01:14:06.958Z,8.18
2017-09-21T01:15:09.550Z,6.70
2017-09-21T01:16:12.038Z,12.40
2017-09-21T01:17:14.497Z,7.05
2017-09-21T01:18:17.023Z,6.95
2017-09-21T01:19:19.546Z,8.32
2017-09-21T01:20:22.064Z,9.90
2017-09-21T01:21:24.614Z,7.90
2017-09-21T01:22:27.076Z,8.85
2017-09-21T01:23:29.590Z,9.82
2017-09-21T01:24:32.178Z,10.10
2017-09-21T01:25:34.699Z,10.32
2017-09-21T01:26:37.216Z,7.45
2017-09-21T01:27:39.721Z,9.93
2017-09-21T01:28:42.809Z,8.57
2017-09-21T01:29:45.290Z,5.00
2017-09-21T01:30:47.742Z,7.60
2017-09-21T01:31:58.899Z,9.85
2017-09-21T01:33:01.418Z,13.27
2017-09-21T01:34:03.898Z,6.45
2017-09-21T01:35:07.149Z,8.73
2017-09-21T01:36:09.614Z,6.75
2017-09-21T01:37:12.087Z,9.15
2017-09-21T01:38:15.355Z,9.95
2017-09-21T01:39:17.834Z,8.60
2017-09-21T01:40:20.306Z,6.60
2017-09-21T01:41:22.809Z,6.87
2017-09-21T01:42:25.293Z,9.07
2017-09-21T01:43:27.842Z,10.57
2017-09-21T01:44:30.312Z,10.88
2017-09-21T01:45:33.118Z,12.40
2017-09-21T01:46:36.343Z,10.10
2017-09-21T01:47:38.801Z,9.05
2017-09-21T01:48:41.326Z,11.10
2017-09-21T01:49:43.823Z,6.53
2017-09-21T01:50:47.072Z,10.82
2017-09-21T01:51:50.317Z,8.57
2017-09-21T01:52:54.083Z,7.97
2017-09-21T01:53:56.547Z,10.30
2017-09-21T01:54:59.811Z,9.32
2017-09-21T01:56:02.322Z,7.95
2017-09-21T01:57:04.849Z,6.95
2017-09-21T01:58:07.315Z,9.25
2017-09-21T01:59:10.617Z,7.60
2017-09-21T02:00:13.072Z,5.72
2017-09-21T02:01:16.304Z,6.68
2017-09-21T02:02:18.812Z,6.20
2017-09-21T02:03:21.267Z,9.15
2017-09-21T02:04:24.544Z,7.45
2017-09-21T02:05:27.029Z,9.15
2017-09-21T02:06:30.302Z,6.45
2017-09-21T02:07:32.826Z,10.35
2017-09-21T02:08:35.287Z,14.63
2017-09-21T02:09:37.778Z,8.90
2017-09-21T02:10:40.254Z,10.55
2017-09-21T02:11:43.555Z,10.23
2017-09-21T02:12:46.794Z,11.70
2017-09-21T02:13:49.264Z,10.73
2017-09-21T02:14:51.720Z,9.18
2017-09-21T02:15:54.985Z,8.55
2017-09-21T02:16:57.442Z,9.73
2017-09-21T02:17:59.947Z,10.82
2017-09-21T02:19:02.440Z,9.65
2017-09-21T02:20:05.702Z,8.18
2017-09-21T02:21:08.171Z,10.05
2017-09-21T02:22:10.686Z,10.48
2017-09-21T02:23:13.193Z,11.63
2017-09-21T02:24:15.645Z,10.18
2017-09-21T02:25:18.109Z,8.98
2017-09-21T02:26:21.386Z,13.62
2017-09-21T02:27:23.862Z,11.10
2017-09-21T02:28:27.230Z,11.12
2017-09-21T02:29:30.462Z,12.77
2017-09-21T02:30:33.696Z,15.40
2017-09-21T02:31:36.984Z,12.48
2017-09-21T02:32:39.451Z,12.43
2017-09-21T02:33:41.967Z,13.93
2017-09-21T02:34:44.592Z,11.38
2017-09-21T02:35:47.058Z,12.45
2017-09-21T02:36:49.555Z,16.87
2017-09-21T02:37:52.026Z,14.77
2017-09-21T02:38:54.528Z,13.25
2017-09-21T02:39:57.030Z,11.55
2017-09-21T02:40:59.699Z,11.85
2017-09-21T02:42:02.210Z,13.18
2017-09-21T02:43:05.444Z,10.15
2017-09-21T02:44:08.699Z,14.00
2017-09-21T02:45:11.272Z,12.52
2017-09-21T02:46:13.736Z,12.27
2017-09-21T02:47:17.022Z,12.65
2017-09-21T02:48:19.490Z,14.93
2017-09-21T02:49:23.460Z,15.77
2017-09-21T02:50:26.705Z,10.70
2017-09-21T02:51:29.984Z,18.42
2017-09-21T02:52:32.458Z,12.55
2017-09-21T02:53:35.030Z,12.30
2017-09-21T02:54:37.502Z,12.52
2017-09-21T02:55:40.017Z,12.50
2017-09-21T02:56:42.639Z,12.32
2017-09-21T02:57:45.121Z,12.82
2017-09-21T02:58:47.596Z,13.70
2017-09-21T02:59:50.051Z,16.17
2017-09-21T03:00:53.300Z,12.48
2017-09-21T03:01:56.788Z,10.80
2017-09-21T03:02:59.255Z,13.82
2017-09-21T03:04:02.490Z,16.08
2017-09-21T03:05:04.957Z,9.93
2017-09-21T03:06:07.411Z,15.52
2017-09-21T03:07:10.001Z,13.77
2017-09-21T03:08:12.465Z,15.07
2017-09-21T03:09:14.927Z,14.13
2017-09-21T03:10:18.154Z,13.23
2017-09-21T03:11:20.663Z,15.25
2017-09-21T03:12:23.152Z,13.60
2017-09-21T03:13:25.642Z,14.13
2017-09-21T03:14:28.111Z,15.23
2017-09-21T03:15:30.574Z,15.93
2017-09-21T03:16:33.035Z,13.35
2017-09-21T03:17:35.512Z,12.30
2017-09-21T03:18:38.011Z,13.32
2017-09-21T03:19:40.483Z,14.65
2017-09-21T03:20:43.050Z,13.25
2017-09-21T03:21:45.562Z,11.15
2017-09-21T03:22:48.031Z,11.30
2017-09-21T03:23:50.494Z,14.77
2017-09-21T03:24:53.730Z,15.60
2017-09-21T03:25:56.232Z,13.48
2017-09-21T03:26:58.758Z,16.35
2017-09-21T03:28:01.250Z,11.60
2017-09-21T03:29:03.874Z,15.00
2017-09-21T03:30:06.328Z,18.60
2017-09-21T03:31:08.801Z,16.33
2017-09-21T03:32:11.284Z,14.57
2017-09-21T03:33:13.792Z,14.95
2017-09-21T03:34:16.302Z,16.12
2017-09-21T03:35:18.824Z,16.83
2017-09-21T03:36:21.313Z,13.35
2017-09-21T03:37:23.819Z,14.25
2017-09-21T03:38:26.560Z,13.55
2017-09-21T03:39:29.030Z,15.85
2017-09-21T03:40:31.489Z,18.98
2017-09-21T03:41:33.971Z,13.93
2017-09-21T03:42:36.492Z,15.25
2017-09-21T03:43:39.042Z,19.10
2017-09-21T03:44:41.523Z,16.42
2017-09-21T03:45:44.159Z,17.95
2017-09-21T03:46:47.400Z,17.62
2017-09-21T03:47:50.661Z,17.83
2017-09-21T03:48:53.167Z,15.13
2017-09-21T03:49:55.744Z,18.40
2017-09-21T03:50:58.294Z,16.62
2017-09-21T03:52:00.871Z,15.38
2017-09-21T03:53:03.390Z,18.02
2017-09-21T03:54:05.932Z,20.48
2017-09-21T03:55:08.859Z,16.67
2017-09-21T03:56:11.335Z,16.33
2017-09-21T03:57:13.805Z,20.15
2017-09-21T03:58:16.273Z,19.40
2017-09-21T03:59:18.798Z,20.15
2017-09-21T04:00:21.255Z,19.83
2017-09-21T04:01:24.544Z,20.12
2017-09-21T04:02:27.004Z,20.12
2017-09-21T04:03:29.475Z,20.45
2017-09-21T04:04:32.012Z,18.87
2017-09-21T04:05:35.211Z,19.58
2017-09-21T04:06:37.679Z,19.87
2017-09-21T04:07:40.167Z,22.83
2017-09-21T04:08:43.455Z,20.02
2017-09-21T04:09:45.966Z,22.83
2017-09-21T04:10:49.094Z,22.23
2017-09-21T04:11:51.576Z,18.85
2017-09-21T04:12:54.049Z,21.58
2017-09-21T04:13:56.518Z,24.67
2017-09-21T04:14:59.023Z,20.20
2017-09-21T04:16:01.498Z,18.85
2017-09-21T04:17:05.514Z,19.50
2017-09-21T04:18:07.986Z,18.17
2017-09-21T04:19:11.212Z,22.02
2017-09-21T04:20:13.711Z,20.98
2017-09-21T04:21:16.185Z,21.25
2017-09-21T04:22:19.423Z,23.35
2017-09-21T04:23:22.670Z,20.90
2017-09-21T04:24:25.910Z,21.02
2017-09-21T04:25:29.197Z,20.98
2017-09-21T04:26:31.706Z,19.75
2017-09-21T04:27:34.322Z,23.95
2017-09-21T04:28:36.789Z,19.35
2017-09-21T04:29:39.267Z,17.30
2017-09-21T04:30:41.765Z,25.65
2017-09-21T04:31:44.283Z,26.15
2017-09-21T04:32:46.770Z,22.77
2017-09-21T04:33:49.231Z,24.27
2017-09-21T04:34:51.703Z,23.10
2017-09-21T04:35:54.220Z,23.38
2017-09-21T04:36:56.752Z,25.62
2017-09-21T04:37:59.222Z,22.77
2017-09-21T04:39:01.694Z,24.50
2017-09-21T04:40:04.175Z,25.65
2017-09-21T04:41:06.678Z,23.48
2017-09-21T04:42:09.135Z,22.33
2017-09-21T04:43:11.604Z,26.58
2017-09-21T04:44:14.176Z,21.95
2017-09-21T04:45:16.657Z,24.55
2017-09-21T04:46:19.154Z,32.60
2017-09-21T04:47:22.429Z,21.70
2017-09-21T04:48:24.923Z,24.80
2017-09-21T04:49:28.182Z,24.45
2017-09-21T04:50:31.421Z,25.77
2017-09-21T04:51:35.045Z,25.70
2017-09-21T04:52:38.138Z,24.17
2017-09-21T04:53:40.602Z,31.10
2017-09-21T04:54:43.074Z,25.02
2017-09-21T04:55:45.594Z,23.67
2017-09-21T04:56:48.102Z,29.50
2017-09-21T04:57:51.341Z,22.50
2017-09-21T04:58:54.598Z,26.80
2017-09-21T04:59:57.084Z,26.70
2017-09-21T05:00:59.558Z,35.55
2017-09-21T05:02:02.070Z,29.48
2017-09-21T05:03:05.639Z,31.37
2017-09-21T05:04:08.118Z,27.00
2017-09-21T05:05:10.600Z,29.65
2017-09-21T05:06:13.864Z,25.90
2017-09-21T05:07:16.351Z,22.75
2017-09-21T05:08:18.919Z,30.95
2017-09-21T05:09:21.381Z,31.45
2017-09-21T05:10:24.647Z,25.62
2017-09-21T05:11:27.167Z,27.58
2017-09-21T05:12:29.652Z,28.30
2017-09-21T05:13:33.043Z,30.30
2017-09-21T05:14:35.530Z,31.62
2017-09-21T05:15:38.990Z,28.20
2017-09-21T05:16:42.222Z,27.23
2017-09-21T05:17:44.752Z,25.60
2017-09-21T05:18:48.046Z,27.70
2017-09-21T05:19:50.503Z,30.98
2017-09-21T05:20:52.970Z,29.27
2017-09-21T05:21:55.467Z,31.35
2017-09-21T05:22:58.730Z,27.37
2017-09-21T05:24:02.031Z,27.27
2017-09-21T05:25:04.549Z,28.20
2017-09-21T05:26:07.010Z,26.75
2017-09-21T05:27:10.266Z,32.17
2017-09-21T05:28:13.491Z,29.42
2017-09-21T05:29:16.758Z,29.63
2017-09-21T05:30:19.483Z,36.10
2017-09-21T05:31:21.946Z,34.13
2017-09-21T05:32:24.662Z,30.12
2017-09-21T05:33:27.146Z,31.17
2017-09-21T05:34:30.464Z,27.30
2017-09-21T05:35:33.036Z,32.60
2017-09-21T05:36:35.505Z,29.58
2017-09-21T05:37:37.990Z,30.27
2017-09-21T05:38:40.522Z,28.67
2017-09-21T05:39:43.656Z,29.15
2017-09-21T05:40:46.167Z,26.92
2017-09-21T05:41:49.410Z,34.17
2017-09-21T05:42:51.901Z,35.40
2017-09-21T05:43:54.396Z,28.50
2017-09-21T05:44:57.693Z,33.58
2017-09-21T05:46:00.954Z,29.98
2017-09-21T05:47:03.716Z,32.45
2017-09-21T05:48:06.211Z,30.55
2017-09-21T05:49:09.474Z,30.60
2017-09-21T05:50:12.029Z,30.00
2017-09-21T05:51:14.517Z,31.87
2017-09-21T05:52:16.999Z,35.10
2017-09-21T05:53:19.516Z,31.60
2017-09-21T05:54:21.994Z,37.50
2017-09-21T05:55:24.556Z,35.70
2017-09-21T05:56:27.096Z,31.60
2017-09-21T05:57:29.560Z,34.55
2017-09-21T05:58:32.054Z,37.92
2017-09-21T05:59:34.595Z,31.45
2017-09-21T06:00:37.118Z,31.90
2017-09-21T06:01:40.387Z,34.95
2017-09-21T06:02:42.940Z,36.08
2017-09-21T06:03:45.416Z,35.95
2017-09-21T06:04:48.715Z,29.55
2017-09-21T06:05:51.202Z,29.42
2017-09-21T06:06:53.721Z,35.13
2017-09-21T06:07:56.456Z,32.65
2017-09-21T06:08:59.750Z,36.53
2017-09-21T06:10:02.210Z,32.42
2017-09-21T06:11:04.729Z,37.17
2017-09-21T06:12:08.106Z,34.47
2017-09-21T06:13:10.573Z,36.75
2017-09-21T06:14:13.529Z,34.42
2017-09-21T06:15:16.005Z,37.30
2017-09-21T06:16:18.514Z,34.72
2017-09-21T06:17:21.178Z,37.22
2017-09-21T06:18:23.659Z,44.65
2017-09-21T06:19:26.208Z,31.45
2017-09-21T06:20:28.674Z,34.97
2017-09-21T06:21:31.143Z,36.72
2017-09-21T06:22:33.718Z,37.10
2017-09-21T06:23:36.292Z,39.08
2017-09-21T06:24:38.787Z,35.90
2017-09-21T06:25:43.347Z,36.47
2017-09-21T06:26:45.871Z,34.15
2017-09-21T06:27:48.533Z,35.38
2017-09-21T06:28:51.396Z,35.72
2017-09-21T06:29:53.902Z,33.88
2017-09-21T06:30:56.362Z,36.35
2017-09-21T06:31:58.865Z,31.05
2017-09-21T06:33:01.655Z,38.65
2017-09-21T06:34:04.930Z,32.97
2017-09-21T06:35:07.459Z,33.30
2017-09-21T06:36:09.985Z,34.65
2017-09-21T06:37:12.473Z,34.40
2017-09-21T06:38:14.938Z,32.72
2017-09-21T06:39:17.447Z,31.83
2017-09-21T06:40:19.993Z,35.17
2017-09-21T06:41:22.472Z,35.45
2017-09-21T06:42:24.939Z,40.22
2017-09-21T06:43:27.470Z,33.45
2017-09-21T06:44:29.970Z,37.13
2017-09-21T06:45:33.263Z,30.45
2017-09-21T06:46:35.745Z,37.72
2017-09-21T06:47:39.086Z,43.55
2017-09-21T06:48:42.343Z,36.08
2017-09-21T06:49:44.834Z,37.42
2017-09-21T06:50:47.377Z,41.03
2017-09-21T06:51:50.608Z,40.58
2017-09-21T06:52:53.850Z,37.85
2017-09-21T06:53:57.119Z,35.47
2017-09-21T06:54:59.607Z,37.92
2017-09-21T06:56:02.116Z,39.00
2017-09-21T06:57:04.614Z,34.38
2017-09-21T06:58:07.083Z,36.45
2017-09-21T06:59:09.546Z,39.67
2017-09-21T07:00:12.064Z,36.60
2017-09-21T07:01:14.579Z,37.30
2017-09-21T07:02:17.828Z,34.33
2017-09-21T07:03:20.290Z,38.63
2017-09-21T07:04:22.757Z,37.53
2017-09-21T07:05:25.990Z,35.50
2017-09-21T07:06:29.288Z,41.95
2017-09-21T07:07:31.767Z,37.72
2017-09-21T07:08:34.226Z,39.22
2017-09-21T07:09:37.175Z,54.92
2017-09-21T07:10:39.643Z,41.92
2017-09-21T07:11:42.157Z,40.97
2017-09-21T07:12:45.411Z,40.67
2017-09-21T07:13:48.162Z,35.08
2017-09-21T07:14:51.406Z,38.72
2017-09-21T07:15:54.626Z,38.08
2017-09-21T07:16:57.293Z,39.00
2017-09-21T07:17:59.772Z,38.50
2017-09-21T07:19:02.247Z,37.28
2017-09-21T07:20:04.758Z,37.00
2017-09-21T07:21:08.012Z,37.35
2017-09-21T07:22:10.533Z,32.97
2017-09-21T07:23:13.006Z,36.20
2017-09-21T07:24:15.472Z,38.97
2017-09-21T07:25:18.714Z,35.25
2017-09-21T07:26:21.218Z,33.30
2017-09-21T07:27:23.721Z,36.20
2017-09-21T07:28:26.209Z,38.33
2017-09-21T07:29:28.682Z,30.15
2017-09-21T07:30:31.169Z,41.70
2017-09-21T07:31:33.723Z,38.17
2017-09-21T07:32:36.214Z,35.67
2017-09-21T07:33:38.699Z,33.45
2017-09-21T07:34:41.187Z,36.55
2017-09-21T07:35:43.735Z,36.10
2017-09-21T07:36:46.214Z,40.83
2017-09-21T07:37:48.834Z,35.72
2017-09-21T07:38:51.346Z,29.30
2017-09-21T07:39:54.652Z,34.25
2017-09-21T07:40:57.134Z,28.83
2017-09-21T07:41:59.598Z,31.17
2017-09-21T07:43:02.201Z,35.17
2017-09-21T07:44:04.679Z,28.67
2017-09-21T07:45:07.184Z,38.55
2017-09-21T07:46:09.668Z,32.20
2017-09-21T07:47:12.141Z,32.33
2017-09-21T07:48:14.654Z,30.67
2017-09-21T07:49:17.122Z,32.55
2017-09-21T07:50:20.373Z,31.65
2017-09-21T07:51:22.881Z,33.22
2017-09-21T07:52:26.189Z,32.92
2017-09-21T07:53:28.737Z,28.50
2017-09-21T07:54:31.185Z,34.75
2017-09-21T07:55:34.440Z,27.10
2017-09-21T07:56:36.946Z,33.17
2017-09-21T07:57:40.358Z,29.08
2017-09-21T07:58:42.917Z,28.65
2017-09-21T07:59:45.406Z,31.37
2017-09-21T08:00:47.883Z,24.75
2017-09-21T08:01:50.432Z,34.65
2017-09-21T08:02:52.915Z,33.15
2017-09-21T08:03:56.199Z,24.65
2017-09-21T08:04:58.664Z,29.92
2017-09-21T08:06:01.141Z,28.75
2017-09-21T08:07:03.620Z,25.55
2017-09-21T08:08:06.139Z,25.42
2017-09-21T08:09:08.870Z,24.35
2017-09-21T08:10:11.338Z,27.98
2017-09-21T08:11:13.810Z,22.23
2017-09-21T08:12:16.406Z,33.85
2017-09-21T08:13:18.887Z,32.97
2017-09-21T08:14:22.230Z,33.60
2017-09-21T08:15:25.486Z,29.25
2017-09-21T08:16:28.718Z,32.17
2017-09-21T08:17:31.998Z,24.87
2017-09-21T08:18:34.489Z,23.62
2017-09-21T08:19:37.746Z,33.00
2017-09-21T08:20:40.218Z,25.88
2017-09-21T08:21:42.706Z,34.80
2017-09-21T08:22:45.172Z,27.70
2017-09-21T08:23:47.647Z,27.67
2017-09-21T08:24:50.203Z,31.02
2017-09-21T08:25:52.734Z,26.35
2017-09-21T08:26:55.227Z,37.80
2017-09-21T08:27:57.709Z,25.95
2017-09-21T08:29:00.990Z,26.08
2017-09-21T08:30:03.494Z,29.30
2017-09-21T08:31:06.730Z,24.20
2017-09-21T08:32:09.291Z,31.00
2017-09-21T08:33:11.759Z,19.55
2017-09-21T08:34:14.234Z,27.92
2017-09-21T08:35:16.762Z,29.60
2017-09-21T08:36:19.334Z,22.45
2017-09-21T08:37:21.818Z,30.35
2017-09-21T08:38:24.323Z,27.15
2017-09-21T08:39:27.578Z,26.08
2017-09-21T08:40:30.836Z,32.20
2017-09-21T08:41:33.367Z,25.80
2017-09-21T08:42:35.871Z,31.40
2017-09-21T08:43:39.103Z,28.67
2017-09-21T08:44:42.361Z,29.67
2017-09-21T08:45:44.861Z,24.20
2017-09-21T08:46:48.118Z,30.67
2017-09-21T08:47:51.352Z,28.25
2017-09-21T08:48:54.739Z,27.33
2017-09-21T08:49:57.214Z,23.42
2017-09-21T08:50:59.699Z,28.08
2017-09-21T08:52:02.171Z,26.55
2017-09-21T08:53:05.390Z,22.00
2017-09-21T08:54:07.924Z,27.42
2017-09-21T08:55:11.140Z,23.00
2017-09-21T08:56:13.605Z,24.10
2017-09-21T08:57:16.843Z,26.37
2017-09-21T08:58:20.119Z,26.70
2017-09-21T08:59:22.654Z,27.67
2017-09-21T09:00:25.195Z,30.65
2017-09-21T09:01:27.653Z,21.15
2017-09-21T09:02:30.117Z,26.55
2017-09-21T09:03:32.582Z,25.35
2017-09-21T09:04:35.038Z,25.12
2017-09-21T09:05:38.311Z,25.00
2017-09-21T09:06:40.800Z,23.65
2017-09-21T09:07:43.287Z,26.08
2017-09-21T09:08:45.770Z,23.52
2017-09-21T09:09:48.986Z,19.75
2017-09-21T09:10:51.484Z,26.45
2017-09-21T09:11:53.996Z,21.52
2017-09-21T09:12:56.458Z,24.55
2017-09-21T09:13:58.955Z,23.02
2017-09-21T09:15:01.565Z,20.83
2017-09-21T09:16:04.075Z,19.30
2017-09-21T09:17:06.576Z,20.10
2017-09-21T09:18:09.802Z,18.52
2017-09-21T09:19:12.269Z,21.37
2017-09-21T09:20:14.752Z,27.33
2017-09-21T09:21:17.225Z,19.23
2017-09-21T09:22:19.714Z,21.17
2017-09-21T09:23:22.243Z,20.55
2017-09-21T09:24:24.755Z,17.20
2017-09-21T09:25:27.273Z,19.20
2017-09-21T09:26:29.754Z,19.87
2017-09-21T09:27:32.248Z,15.88
2017-09-21T09:28:35.494Z,20.12
2017-09-21T09:29:38.803Z,22.00
2017-09-21T09:30:41.282Z,21.90
2017-09-21T09:31:43.806Z,22.23
2017-09-21T09:32:46.278Z,23.17
2017-09-21T09:33:49.555Z,21.75
2017-09-21T09:34:52.906Z,18.10
2017-09-21T09:35:56.136Z,18.12
2017-09-21T09:36:58.704Z,17.00
2017-09-21T09:38:01.162Z,19.80
2017-09-21T09:39:03.613Z,16.00
2017-09-21T09:40:06.862Z,14.55
2017-09-21T09:41:10.115Z,21.58
2017-09-21T09:42:12.595Z,17.75
2017-09-21T09:43:15.073Z,15.10
2017-09-21T09:44:17.598Z,15.98
2017-09-21T09:45:20.090Z,14.57
2017-09-21T09:46:22.554Z,16.23
2017-09-21T09:47:25.507Z,15.02
2017-09-21T09:48:27.958Z,11.82
2017-09-21T09:49:31.234Z,12.13
2017-09-21T09:50:34.603Z,13.65
2017-09-21T09:51:37.147Z,16.10
2017-09-21T09:52:39.603Z,13.60
2017-09-21T09:53:42.091Z,13.98
2017-09-21T09:54:44.613Z,12.50
2017-09-21T09:55:47.083Z,13.90
2017-09-21T09:56:49.558Z,16.50
2017-09-21T09:57:52.035Z,13.07
2017-09-21T09:58:54.519Z,10.07
2017-09-21T09:59:56.994Z,13.20
2017-09-21T10:01:00.238Z,11.65
2017-09-21T10:02:03.491Z,12.43
2017-09-21T10:03:06.750Z,11.15
2017-09-21T10:04:09.270Z,10.52
2017-09-21T10:05:11.746Z,15.10
2017-09-21T10:06:14.207Z,15.23
2017-09-21T10:07:17.572Z,11.60
2017-09-21T10:08:20.122Z,12.45
2017-09-21T10:09:22.593Z,10.57
2017-09-21T10:10:25.830Z,6.87
2017-09-21T10:11:28.295Z,7.32
2017-09-21T10:12:30.820Z,11.55
2017-09-21T10:13:33.290Z,8.02
2017-09-21T10:14:35.780Z,12.02
2017-09-21T10:15:38.259Z,9.57
2017-09-21T10:16:41.487Z,11.55
2017-09-21T10:17:44.746Z,9.43
2017-09-21T10:18:47.994Z,15.02
2017-09-21T10:19:51.258Z,11.93
2017-09-21T10:20:53.746Z,17.15
2017-09-21T10:21:56.206Z,14.32
2017-09-21T10:22:58.726Z,19.17
2017-09-21T10:24:01.250Z,12.55
2017-09-21T10:25:04.488Z,14.02
2017-09-21T10:26:07.755Z,12.35
2017-09-21T10:27:10.226Z,9.68
2017-09-21T10:28:12.731Z,11.52
2017-09-21T10:29:15.240Z,10.80
2017-09-21T10:30:17.713Z,11.50
2017-09-21T10:31:21.801Z,15.07
2017-09-21T10:32:24.257Z,11.00
2017-09-21T10:33:26.710Z,12.90
2017-09-21T10:34:29.279Z,12.25
2017-09-21T10:35:32.625Z,24.87
2017-09-21T10:36:35.146Z,19.73
2017-09-21T10:37:37.729Z,21.60
2017-09-21T10:38:40.212Z,13.68
2017-09-21T10:39:42.687Z,15.82
2017-09-21T10:40:45.164Z,16.87
2017-09-21T10:41:47.695Z,15.23
2017-09-21T10:42:50.160Z,11.57
2017-09-21T10:43:52.647Z,12.43
2017-09-21T10:44:55.119Z,14.70
2017-09-21T10:45:58.346Z,27.52
2017-09-21T10:47:00.930Z,18.98
2017-09-21T10:48:03.403Z,14.02
2017-09-21T10:49:05.877Z,13.05
2017-09-21T10:50:08.410Z,15.85
2017-09-21T10:51:10.909Z,10.50
2017-09-21T10:52:14.270Z,10.63
2017-09-21T10:53:16.719Z,9.70
2017-09-21T10:54:19.227Z,9.18
2017-09-21T10:55:21.690Z,12.30
2017-09-21T10:56:24.164Z,12.40
2017-09-21T10:57:26.657Z,12.15
2017-09-21T10:58:30.618Z,10.90
2017-09-21T10:59:33.907Z,11.73
2017-09-21T11:00:36.383Z,11.20
2017-09-21T11:01:39.612Z,10.90
2017-09-21T11:02:42.177Z,17.00
2017-09-21T11:03:45.404Z,8.95
2017-09-21T11:04:48.642Z,12.15
2017-09-21T11:05:51.922Z,11.95
2017-09-21T11:06:55.202Z,13.90
2017-09-21T11:07:57.690Z,14.02
2017-09-21T11:09:00.539Z,13.57
2017-09-21T11:10:03.002Z,10.75
2017-09-21T11:11:06.290Z,11.80
2017-09-21T11:12:08.833Z,12.43
2017-09-21T11:13:11.308Z,10.27
2017-09-21T11:14:14.558Z,16.05
2017-09-21T11:15:17.810Z,9.43
2017-09-21T11:16:21.580Z,15.40
2017-09-21T11:17:24.055Z,11.88
2017-09-21T11:18:26.513Z,10.10
2017-09-21T11:19:28.988Z,8.00
2017-09-21T11:20:31.431Z,10.38
2017-09-21T11:21:33.948Z,10.02
2017-09-21T11:22:36.417Z,8.32
2017-09-21T11:23:38.943Z,13.45
2017-09-21T11:24:41.391Z,9.68
2017-09-21T11:25:43.852Z,8.30
2017-09-21T11:26:46.354Z,10.88
2017-09-21T11:27:48.891Z,10.15
2017-09-21T11:28:51.466Z,10.63
2017-09-21T11:29:54.694Z,9.35
2017-09-21T11:30:57.958Z,9.48
2017-09-21T11:32:00.435Z,8.57
2017-09-21T11:33:02.968Z,10.63
2017-09-21T11:34:06.211Z,10.40
2017-09-21T11:35:08.699Z,7.62
2017-09-21T11:36:11.219Z,7.28
2017-09-21T11:37:13.834Z,7.65
2017-09-21T11:38:16.333Z,14.77
2017-09-21T11:39:20.383Z,7.32
2017-09-21T11:40:23.124Z,9.35
2017-09-21T11:41:26.392Z,9.35
2017-09-21T11:42:28.935Z,9.05
2017-09-21T11:43:31.699Z,10.18
2017-09-21T11:44:34.183Z,10.18
2017-09-21T11:45:36.750Z,8.63
2017-09-21T11:46:39.398Z,13.73
2017-09-21T11:47:41.874Z,12.70
2017-09-21T11:48:44.629Z,7.05
2017-09-21T11:49:47.102Z,7.65
2017-09-21T11:50:49.621Z,13.10
2017-09-21T11:51:52.153Z,5.85
2017-09-21T11:52:54.637Z,13.60
2017-09-21T11:53:57.106Z,6.97
2017-09-21T11:54:59.669Z,13.45
2017-09-21T11:56:02.127Z,9.00
2017-09-21T11:57:05.243Z,14.80
2017-09-21T11:58:07.815Z,16.60
2017-09-21T11:59:11.040Z,9.27
2017-09-21T12:00:13.566Z,7.47
2017-09-21T12:01:16.852Z,12.13
2017-09-21T12:02:19.329Z,11.52
2017-09-21T12:03:22.362Z,7.50
2017-09-21T12:04:24.847Z,6.22
2017-09-21T12:05:27.309Z,8.95
2017-09-21T12:06:29.773Z,7.65
2017-09-21T12:07:33.191Z,5.12
2017-09-21T12:08:35.684Z,9.90
2017-09-21T12:09:38.173Z,8.27
2017-09-21T12:10:40.640Z,7.00
2017-09-21T12:11:43.730Z,5.70
2017-09-21T12:12:46.206Z,7.53
2017-09-21T12:13:48.658Z,8.82
2017-09-21T12:14:51.875Z,4.93
2017-09-21T12:15:54.436Z,7.68
2017-09-21T12:16:57.666Z,10.30
2017-09-21T12:18:00.925Z,10.00
2017-09-21T12:19:03.366Z,5.70
2017-09-21T12:20:05.830Z,10.07
2017-09-21T12:21:08.317Z,12.18
2017-09-21T12:22:10.841Z,9.48
2017-09-21T12:23:13.367Z,10.60
2017-09-21T12:24:15.886Z,10.00
2017-09-21T12:25:18.335Z,9.60
2017-09-21T12:26:20.801Z,12.32
2017-09-21T12:27:23.286Z,9.32
2017-09-21T12:28:25.749Z,6.72
2017-09-21T12:29:28.195Z,9.52
2017-09-21T12:30:31.451Z,7.00
2017-09-21T12:31:33.920Z,6.40
2017-09-21T12:32:36.410Z,9.63
2017-09-21T12:33:38.869Z,7.28
2017-09-21T12:34:41.323Z,5.47
2017-09-21T12:35:43.876Z,4.30
2017-09-21T12:36:46.349Z,9.05
2017-09-21T12:37:48.847Z,6.12
2017-09-21T12:38:51.315Z,9.40
2017-09-21T12:39:53.872Z,6.50
2017-09-21T12:40:57.161Z,8.65
2017-09-21T12:41:59.671Z,6.57
2017-09-21T12:43:02.128Z,10.27
2017-09-21T12:44:05.417Z,8.77
2017-09-21T12:45:07.919Z,9.50
2017-09-21T12:46:11.742Z,10.25
2017-09-21T12:47:14.225Z,6.57
2017-09-21T12:48:17.179Z,6.30
2017-09-21T12:49:19.647Z,14.18
2017-09-21T12:50:22.099Z,9.75
2017-09-21T12:51:24.631Z,12.85
2017-09-21T12:52:27.125Z,11.80
2017-09-21T12:53:29.586Z,10.52
2017-09-21T12:54:32.068Z,12.60
2017-09-21T12:55:34.526Z,6.12
2017-09-21T12:56:37.050Z,8.88
2017-09-21T12:57:39.627Z,6.75
2017-09-21T12:58:42.118Z,12.98
2017-09-21T12:59:44.622Z,11.25
2017-09-21T13:00:47.905Z,12.37
2017-09-21T13:01:50.980Z,15.48
2017-09-21T13:02:53.435Z,20.15
2017-09-21T13:03:55.905Z,18.50
2017-09-21T13:04:58.387Z,22.50
2017-09-21T13:06:00.907Z,10.35
2017-09-21T13:07:04.138Z,16.58
2017-09-21T13:08:07.359Z,14.70
2017-09-21T13:09:11.356Z,12.77
2017-09-21T13:10:13.840Z,18.55
2017-09-21T13:11:16.343Z,15.30
2017-09-21T13:12:18.834Z,13.35
2017-09-21T13:13:21.353Z,20.73
2017-09-21T13:14:24.577Z,13.90
2017-09-21T13:15:27.116Z,14.07
2017-09-21T13:16:30.396Z,18.30
2017-09-21T13:17:32.929Z,15.45
2017-09-21T13:18:35.434Z,13.73
2017-09-21T13:19:37.898Z,12.52
2017-09-21T13:20:40.372Z,16.45
2017-09-21T13:21:42.882Z,20.60
2017-09-21T13:22:46.132Z,18.15
2017-09-21T13:23:49.392Z,17.50
2017-09-21T13:24:51.894Z,17.65
2017-09-21T13:25:55.142Z,21.65
2017-09-21T13:26:57.760Z,17.02
2017-09-21T13:28:01.081Z,22.17
2017-09-21T13:29:03.566Z,14.68
2017-09-21T13:30:06.053Z,15.88
2017-09-21T13:31:09.308Z,13.52
2017-09-21T13:32:12.554Z,18.30
2017-09-21T13:33:15.039Z,25.25
2017-09-21T13:34:17.527Z,15.35